createdAt,value
2017-11-06T00:00:54.830Z,1015.01
2017-11-06T00:02:03.674Z,1015.05
2017-11-06T00:03:12.517Z,1015.12
2017-11-06T00:04:21.360Z,1015.14
2017-11-06T00:05:30.203Z,1015.12
2017-11-06T00:06:39.199Z,1015.09
2017-11-06T00:07:48.039Z,1015.1
2017-11-06T00:08:56.882Z,1015.14
2017-11-06T00:10:05.724Z,1015.12
2017-11-06T00:11:14.923Z,1015.12
2017-11-06T00:12:23.966Z,1015.13
2017-11-06T00:13:32.810Z,1015.2
2017-11-06T00:14:41.656Z,1015.24
2017-11-06T00:15:50.516Z,1015.25
2017-11-06T00:16:59.343Z,1015.25
2017-11-06T00:18:08.234Z,1015.22
2017-11-06T00:19:17.075Z,1015.28
2017-11-06T00:20:25.919Z,1015.26
2017-11-06T00:21:34.759Z,1015.29
2017-11-06T00:22:43.603Z,1015.27
2017-11-06T00:23:52.941Z,1015.28
2017-11-06T00:25:01.787Z,1015.3
2017-11-06T00:26:10.631Z,1015.25
2017-11-06T00:27:19.474Z,1015.29
2017-11-06T00:28:28.318Z,1015.31
2017-11-06T00:29:37.466Z,1015.28
2017-11-06T00:30:46.655Z,1015.33
2017-11-06T00:31:55.506Z,1015.34
2017-11-06T00:33:04.341Z,1015.38
2017-11-06T00:34:13.186Z,1015.32
2017-11-06T00:35:22.280Z,1015.39
2017-11-06T00:36:31.122Z,1015.42
2017-11-06T00:37:39.984Z,1015.44
2017-11-06T00:38:48.808Z,1015.38
2017-11-06T00:39:57.651Z,1015.36
2017-11-06T00:41:06.550Z,1015.46
2017-11-06T00:42:15.387Z,1015.44
2017-11-06T00:43:24.230Z,1015.48
2017-11-06T00:44:33.077Z,1015.51
2017-11-06T00:45:41.921Z,1015.5
2017-11-06T00:46:50.865Z,1015.5
2017-11-06T00:47:59.713Z,1015.47
2017-11-06T00:49:08.560Z,1015.57
2017-11-06T00:50:17.750Z,1015.55
2017-11-06T00:51:26.595Z,1015.62
2017-11-06T00:52:35.436Z,1015.6
2017-11-06T00:53:44.281Z,1015.65
2017-11-06T00:54:53.125Z,1015.63
2017-11-06T00:56:01.969Z,1015.66
2017-11-06T00:57:11.164Z,1015.67
2017-11-06T00:58:20.151Z,1015.69
2017-11-06T00:59:28.995Z,1015.68
2017-11-06T01:00:37.839Z,1015.72
2017-11-06T01:01:46.688Z,1015.75
2017-11-06T01:02:55.526Z,1015.78
2017-11-06T01:04:04.471Z,1015.77
2017-11-06T01:05:13.312Z,1015.81
2017-11-06T01:06:22.154Z,1015.79
2017-11-06T01:07:30.996Z,1015.81
2017-11-06T01:08:39.840Z,1015.85
2017-11-06T01:09:48.832Z,1015.83
2017-11-06T01:10:57.677Z,1015.84
2017-11-06T01:12:06.516Z,1015.81
2017-11-06T01:13:15.356Z,1015.84
2017-11-06T01:14:24.199Z,1015.88
2017-11-06T01:15:33.140Z,1015.89
2017-11-06T01:16:41.984Z,1015.9
2017-11-06T01:17:50.828Z,1015.94
2017-11-06T01:18:59.675Z,1015.93
2017-11-06T01:20:08.515Z,1015.99
2017-11-06T01:21:17.358Z,1016.03
2017-11-06T01:22:26.203Z,1015.97
2017-11-06T01:23:35.045Z,1016.02
2017-11-06T01:24:43.890Z,1016.06
2017-11-06T01:25:52.732Z,1016.03
2017-11-06T01:27:01.576Z,1016.06
2017-11-06T01:28:10.421Z,1016.09
2017-11-06T01:29:19.261Z,1016.13
2017-11-06T01:30:28.105Z,1016.11
2017-11-06T01:31:36.952Z,1016.15
2017-11-06T01:32:45.944Z,1016.19
2017-11-06T01:33:55.131Z,1016.17
2017-11-06T01:35:03.972Z,1016.16
2017-11-06T01:36:12.818Z,1016.2
2017-11-06T01:37:21.661Z,1016.28
2017-11-06T01:38:30.700Z,1016.26
2017-11-06T01:39:39.545Z,1016.26
2017-11-06T01:40:48.394Z,1016.3
2017-11-06T01:41:57.576Z,1016.31
2017-11-06T01:43:06.422Z,1016.31
2017-11-06T01:44:15.415Z,1016.3
2017-11-06T01:45:24.255Z,1016.25
2017-11-06T01:46:33.095Z,1016.28
2017-11-06T01:47:41.943Z,1016.28
2017-11-06T01:48:50.783Z,1016.32
2017-11-06T01:49:59.674Z,1016.3
2017-11-06T01:51:08.537Z,1016.3
2017-11-06T01:52:17.358Z,1016.3
2017-11-06T01:53:26.200Z,1016.27
2017-11-06T01:54:35.051Z,1016.25
2017-11-06T01:55:44.035Z,1016.23
2017-11-06T01:56:53.230Z,1016.25
2017-11-06T01:58:02.068Z,1016.24
2017-11-06T01:59:10.909Z,1016.32
2017-11-06T02:00:19.756Z,1016.29
2017-11-06T02:01:28.696Z,1016.35
2017-11-06T02:02:37.545Z,1016.31
2017-11-06T02:03:46.387Z,1016.29
2017-11-06T02:04:55.234Z,1016.35
2017-11-06T02:06:04.073Z,1016.34
2017-11-06T02:07:13.120Z,1016.33
2017-11-06T02:08:21.961Z,1016.39
2017-11-06T02:09:30.805Z,1016.44
2017-11-06T02:10:39.648Z,1016.42
2017-11-06T02:11:48.502Z,1016.42
2017-11-06T02:12:57.492Z,1016.4
2017-11-06T02:14:06.328Z,1016.41
2017-11-06T02:15:15.175Z,1016.37
2017-11-06T02:16:24.013Z,1016.35
2017-11-06T02:17:32.856Z,1016.39
2017-11-06T02:18:41.795Z,1016.36
2017-11-06T02:19:50.640Z,1016.36
2017-11-06T02:20:59.485Z,1016.31
2017-11-06T02:22:08.324Z,1016.36
2017-11-06T02:23:17.165Z,1016.35
2017-11-06T02:24:26.112Z,1016.38
2017-11-06T02:25:34.950Z,1016.43
2017-11-06T02:26:43.792Z,1016.43
2017-11-06T02:27:52.634Z,1016.45
2017-11-06T02:29:01.477Z,1016.41
2017-11-06T02:30:10.369Z,1016.45
2017-11-06T02:31:19.212Z,1016.46
2017-11-06T02:32:28.054Z,1016.48
2017-11-06T02:33:36.897Z,1016.5
2017-11-06T02:34:45.739Z,1016.48
2017-11-06T02:35:54.784Z,1016.48
2017-11-06T02:37:03.634Z,1016.47
2017-11-06T02:38:12.476Z,1016.43
2017-11-06T02:39:21.679Z,1016.45
2017-11-06T02:40:30.521Z,1016.49
2017-11-06T02:41:39.464Z,1016.48
2017-11-06T02:42:48.309Z,1016.5
2017-11-06T02:43:57.150Z,1016.51
2017-11-06T02:45:05.992Z,1016.53
2017-11-06T02:46:14.834Z,1016.55
2017-11-06T02:47:23.832Z,1016.56
2017-11-06T02:48:32.671Z,1016.56
2017-11-06T02:49:41.512Z,1016.63
2017-11-06T02:50:50.356Z,1016.62
2017-11-06T02:51:59.201Z,1016.57
2017-11-06T02:53:08.091Z,1016.63
2017-11-06T02:54:16.932Z,1016.66
2017-11-06T02:55:25.774Z,1016.64
2017-11-06T02:56:34.617Z,1016.64
2017-11-06T02:57:43.463Z,1016.62
2017-11-06T02:58:52.456Z,1016.65
2017-11-06T03:00:01.302Z,1016.68
2017-11-06T03:01:10.491Z,1016.68
2017-11-06T03:02:19.333Z,1016.66
2017-11-06T03:03:28.178Z,1016.67
2017-11-06T03:04:37.071Z,1016.65
2017-11-06T03:05:45.916Z,1016.68
2017-11-06T03:06:54.759Z,1016.75
2017-11-06T03:08:03.601Z,1016.78
2017-11-06T03:09:12.443Z,1016.79
2017-11-06T03:10:21.392Z,1016.83
2017-11-06T03:11:30.236Z,1016.8
2017-11-06T03:12:39.073Z,1016.87
2017-11-06T03:13:47.965Z,1016.89
2017-11-06T03:14:56.809Z,1016.89
2017-11-06T03:16:05.703Z,1016.93
2017-11-06T03:17:14.544Z,1016.88
2017-11-06T03:18:23.393Z,1016.9
2017-11-06T03:19:32.230Z,1016.88
2017-11-06T03:20:41.072Z,1016.85
2017-11-06T03:21:49.919Z,1016.94
2017-11-06T03:22:58.763Z,1016.94
2017-11-06T03:24:07.606Z,1016.99
2017-11-06T03:25:16.452Z,1017
2017-11-06T03:26:25.296Z,1017.05
2017-11-06T03:27:34.143Z,1017.13
2017-11-06T03:28:42.984Z,1017.13
2017-11-06T03:29:51.826Z,1017.15
2017-11-06T03:31:00.667Z,1017.1
2017-11-06T03:32:09.510Z,1017.16
2017-11-06T03:33:18.776Z,1017.17
2017-11-06T03:34:27.599Z,1017.17
2017-11-06T03:35:36.437Z,1017.18
2017-11-06T03:36:45.279Z,1017.21
2017-11-06T03:37:54.121Z,1017.23
2017-11-06T03:39:03.415Z,1017.25
2017-11-06T03:40:12.259Z,1017.25
2017-11-06T03:41:21.099Z,1017.23
2017-11-06T03:42:29.943Z,1017.29
2017-11-06T03:43:38.783Z,1017.29
2017-11-06T03:44:47.774Z,1017.33
2017-11-06T03:45:56.616Z,1017.29
2017-11-06T03:47:05.458Z,1017.29
2017-11-06T03:48:14.301Z,1017.32
2017-11-06T03:49:23.139Z,1017.29
2017-11-06T03:50:32.376Z,1017.31
2017-11-06T03:51:41.222Z,1017.3
2017-11-06T03:52:50.059Z,1017.28
2017-11-06T03:53:58.902Z,1017.34
2017-11-06T03:55:07.746Z,1017.33
2017-11-06T03:56:16.588Z,1017.38
2017-11-06T03:57:25.433Z,1017.43
2017-11-06T03:58:34.274Z,1017.45
2017-11-06T03:59:43.113Z,1017.45
2017-11-06T04:00:51.953Z,1017.46
2017-11-06T04:02:00.943Z,1017.5
2017-11-06T04:03:09.784Z,1017.49
2017-11-06T04:04:18.628Z,1017.53
2017-11-06T04:05:27.476Z,1017.5
2017-11-06T04:06:36.312Z,1017.53
2017-11-06T04:07:45.256Z,1017.5
2017-11-06T04:08:54.101Z,1017.54
2017-11-06T04:10:03.289Z,1017.54
2017-11-06T04:11:12.130Z,1017.59
2017-11-06T04:12:20.978Z,1017.6
2017-11-06T04:13:30.308Z,1017.62
2017-11-06T04:14:39.150Z,1017.64
2017-11-06T04:15:47.991Z,1017.68
2017-11-06T04:16:56.834Z,1017.64
2017-11-06T04:18:05.678Z,1017.74
2017-11-06T04:19:14.669Z,1017.67
2017-11-06T04:20:23.865Z,1017.77
2017-11-06T04:21:32.707Z,1017.82
2017-11-06T04:22:41.548Z,1017.81
2017-11-06T04:23:50.391Z,1017.79
2017-11-06T04:24:59.839Z,1017.81
2017-11-06T04:26:09.023Z,1017.8
2017-11-06T04:27:17.867Z,1017.83
2017-11-06T04:28:26.711Z,1017.79
2017-11-06T04:29:35.555Z,1017.84
2017-11-06T04:30:44.546Z,1017.89
2017-11-06T04:31:53.393Z,1017.87
2017-11-06T04:33:02.229Z,1017.87
2017-11-06T04:34:11.070Z,1017.88
2017-11-06T04:35:19.912Z,1017.9
2017-11-06T04:36:29.007Z,1017.96
2017-11-06T04:37:37.848Z,1018.06
2017-11-06T04:38:46.690Z,1018.03
2017-11-06T04:39:55.536Z,1018.06
2017-11-06T04:41:04.386Z,1018.07
2017-11-06T04:42:13.327Z,1018.08
2017-11-06T04:43:22.171Z,1018.1
2017-11-06T04:44:31.017Z,1018.1
2017-11-06T04:45:39.861Z,1018.12
2017-11-06T04:46:48.706Z,1018.13
2017-11-06T04:47:57.700Z,1018.18
2017-11-06T04:49:06.547Z,1018.22
2017-11-06T04:50:15.388Z,1018.19
2017-11-06T04:51:24.232Z,1018.17
2017-11-06T04:52:33.072Z,1018.21
2017-11-06T04:53:42.117Z,1018.27
2017-11-06T04:54:50.961Z,1018.32
2017-11-06T04:55:59.812Z,1018.38
2017-11-06T04:57:08.645Z,1018.4
2017-11-06T04:58:17.486Z,1018.45
2017-11-06T04:59:26.429Z,1018.47
2017-11-06T05:00:35.272Z,1018.45
2017-11-06T05:01:44.115Z,1018.48
2017-11-06T05:02:52.958Z,1018.46
2017-11-06T05:04:01.834Z,1018.45
2017-11-06T05:05:10.898Z,1018.53
2017-11-06T05:06:20.089Z,1018.5
2017-11-06T05:07:28.930Z,1018.46
2017-11-06T05:08:37.771Z,1018.51
2017-11-06T05:09:46.613Z,1018.53
2017-11-06T05:10:55.458Z,1018.53
2017-11-06T05:12:04.307Z,1018.48
2017-11-06T05:13:13.149Z,1018.61
2017-11-06T05:14:22.335Z,1018.62
2017-11-06T05:15:31.179Z,1018.59
2017-11-06T05:16:40.174Z,1018.58
2017-11-06T05:17:49.012Z,1018.59
2017-11-06T05:18:57.853Z,1018.63
2017-11-06T05:20:06.698Z,1018.59
2017-11-06T05:21:15.540Z,1018.67
2017-11-06T05:22:24.436Z,1018.72
2017-11-06T05:23:33.279Z,1018.75
2017-11-06T05:24:42.122Z,1018.75
2017-11-06T05:25:50.965Z,1018.78
2017-11-06T05:26:59.805Z,1018.82
2017-11-06T05:28:09.046Z,1018.79
2017-11-06T05:29:17.885Z,1018.83
2017-11-06T05:30:26.726Z,1018.87
2017-11-06T05:31:35.572Z,1018.93
2017-11-06T05:32:44.415Z,1018.91
2017-11-06T05:33:53.559Z,1018.86
2017-11-06T05:35:02.402Z,1018.94
2017-11-06T05:36:11.243Z,1018.95
2017-11-06T05:37:20.087Z,1018.95
2017-11-06T05:38:28.930Z,1018.96
2017-11-06T05:39:37.823Z,1019.04
2017-11-06T05:40:46.663Z,1018.98
2017-11-06T05:41:55.506Z,1019.05
2017-11-06T05:43:04.346Z,1019.11
2017-11-06T05:44:13.189Z,1019.12
2017-11-06T05:45:22.128Z,1019.12
2017-11-06T05:46:30.972Z,1019.17
2017-11-06T05:47:39.816Z,1019.12
2017-11-06T05:48:48.658Z,1019.09
2017-11-06T05:49:57.501Z,1019.13
2017-11-06T05:51:06.343Z,1019.17
2017-11-06T05:52:15.189Z,1019.21
2017-11-06T05:53:24.058Z,1019.2
2017-11-06T05:54:32.903Z,1019.32
2017-11-06T05:55:41.748Z,1019.34
2017-11-06T05:56:50.590Z,1019.33
2017-11-06T05:57:59.431Z,1019.38
2017-11-06T05:59:08.269Z,1019.36
2017-11-06T06:00:17.111Z,1019.33
2017-11-06T06:01:25.953Z,1019.37
2017-11-06T06:02:34.796Z,1019.36
2017-11-06T06:03:43.635Z,1019.34
2017-11-06T06:04:52.482Z,1019.41
2017-11-06T06:06:01.326Z,1019.38
2017-11-06T06:07:10.169Z,1019.36
2017-11-06T06:08:19.015Z,1019.34
2017-11-06T06:09:27.857Z,1019.31
2017-11-06T06:10:36.700Z,1019.29
2017-11-06T06:11:45.541Z,1019.35
2017-11-06T06:12:54.387Z,1019.32
2017-11-06T06:14:03.229Z,1019.37
2017-11-06T06:15:12.423Z,1019.37
2017-11-06T06:16:21.424Z,1019.38
2017-11-06T06:17:30.271Z,1019.37
2017-11-06T06:18:39.114Z,1019.42
2017-11-06T06:19:47.960Z,1019.46
2017-11-06T06:20:56.804Z,1019.46
2017-11-06T06:22:05.799Z,1019.46
2017-11-06T06:23:14.646Z,1019.4
2017-11-06T06:24:23.492Z,1019.43
2017-11-06T06:25:32.336Z,1019.47
2017-11-06T06:26:41.178Z,1019.52
2017-11-06T06:27:50.222Z,1019.5
2017-11-06T06:28:59.068Z,1019.5
2017-11-06T06:30:07.917Z,1019.53
2017-11-06T06:31:16.859Z,1019.52
2017-11-06T06:32:25.701Z,1019.66
2017-11-06T06:33:34.647Z,1019.71
2017-11-06T06:34:43.490Z,1019.72
2017-11-06T06:35:52.334Z,1019.74
2017-11-06T06:37:01.175Z,1019.77
2017-11-06T06:38:10.021Z,1019.81
2017-11-06T06:39:19.114Z,1019.83
2017-11-06T06:40:27.957Z,1019.83
2017-11-06T06:41:36.801Z,1019.84
2017-11-06T06:42:45.989Z,1019.93
2017-11-06T06:43:54.831Z,1019.96
2017-11-06T06:45:03.726Z,1019.94
2017-11-06T06:46:12.574Z,1019.96
2017-11-06T06:47:21.418Z,1019.99
2017-11-06T06:48:30.260Z,1020.1
2017-11-06T06:49:39.104Z,1020.15
2017-11-06T06:50:48.252Z,1020.16
2017-11-06T06:51:57.094Z,1020.14
2017-11-06T06:53:05.936Z,1020.12
2017-11-06T06:54:14.781Z,1020.16
2017-11-06T06:55:23.626Z,1020.21
2017-11-06T06:56:32.522Z,1020.19
2017-11-06T06:57:41.361Z,1020.22
2017-11-06T06:58:50.206Z,1020.25
2017-11-06T06:59:59.049Z,1020.24
2017-11-06T07:01:07.913Z,1020.26
2017-11-06T07:02:16.886Z,1020.3
2017-11-06T07:03:25.733Z,1020.23
2017-11-06T07:04:34.576Z,1020.29
2017-11-06T07:05:43.419Z,1020.25
2017-11-06T07:06:52.267Z,1020.23
2017-11-06T07:08:01.453Z,1020.29
2017-11-06T07:09:10.301Z,1020.34
2017-11-06T07:10:19.141Z,1020.3
2017-11-06T07:11:27.983Z,1020.31
2017-11-06T07:12:36.828Z,1020.35
2017-11-06T07:13:45.923Z,1020.32
2017-11-06T07:14:54.766Z,1020.35
2017-11-06T07:16:03.612Z,1020.42
2017-11-06T07:17:12.456Z,1020.46
2017-11-06T07:18:21.329Z,1020.44
2017-11-06T07:19:30.148Z,1020.46
2017-11-06T07:20:38.995Z,1020.45
2017-11-06T07:21:47.858Z,1020.44
2017-11-06T07:22:56.684Z,1020.47
2017-11-06T07:24:05.526Z,1020.52
2017-11-06T07:25:14.769Z,1020.49
2017-11-06T07:26:23.611Z,1020.52
2017-11-06T07:27:32.454Z,1020.51
2017-11-06T07:28:41.298Z,1020.55
2017-11-06T07:29:50.140Z,1020.57
2017-11-06T07:30:59.034Z,1020.54
2017-11-06T07:32:07.880Z,1020.59
2017-11-06T07:33:16.728Z,1020.62
2017-11-06T07:34:25.914Z,1020.63
2017-11-06T07:35:34.762Z,1020.65
2017-11-06T07:36:43.753Z,1020.66
2017-11-06T07:37:52.597Z,1020.63
2017-11-06T07:39:01.444Z,1020.69
2017-11-06T07:40:10.286Z,1020.75
2017-11-06T07:41:19.131Z,1020.76
2017-11-06T07:42:28.131Z,1020.83
2017-11-06T07:43:38.292Z,1020.85
2017-11-06T07:44:47.685Z,1020.84
2017-11-06T07:45:56.529Z,1020.88
2017-11-06T07:47:05.375Z,1020.87
2017-11-06T07:48:14.478Z,1020.93
2017-11-06T07:49:23.317Z,1020.92
2017-11-06T07:50:32.159Z,1020.94
2017-11-06T07:51:41.358Z,1020.95
2017-11-06T07:52:50.199Z,1021.02
2017-11-06T07:53:59.295Z,1021.02
2017-11-06T07:55:08.503Z,1021.04
2017-11-06T07:56:17.330Z,1021.1
2017-11-06T07:57:26.174Z,1021.13
2017-11-06T07:58:35.019Z,1021.15
2017-11-06T07:59:44.065Z,1021.17
2017-11-06T08:00:52.910Z,1021.23
2017-11-06T08:02:01.754Z,1021.16
2017-11-06T08:03:10.597Z,1021.19
2017-11-06T08:04:19.440Z,1021.19
2017-11-06T08:05:28.727Z,1021.24
2017-11-06T08:06:37.928Z,1021.2
2017-11-06T08:07:46.775Z,1021.2
2017-11-06T08:08:55.620Z,1021.24
2017-11-06T08:10:04.465Z,1021.28
2017-11-06T08:11:13.563Z,1021.28
2017-11-06T08:12:22.404Z,1021.32
2017-11-06T08:13:31.248Z,1021.32
2017-11-06T08:14:40.442Z,1021.36
2017-11-06T08:15:49.289Z,1021.37
2017-11-06T08:16:58.135Z,1021.41
2017-11-06T08:18:07.330Z,1021.41
2017-11-06T08:19:16.174Z,1021.39
2017-11-06T08:20:25.029Z,1021.41
2017-11-06T08:21:33.868Z,1021.44
2017-11-06T08:22:42.861Z,1021.43
2017-11-06T08:23:51.704Z,1021.47
2017-11-06T08:25:00.608Z,1021.5
2017-11-06T08:26:09.388Z,1021.51
2017-11-06T08:27:18.233Z,1021.55
2017-11-06T08:28:27.331Z,1021.53
2017-11-06T08:29:36.170Z,1021.54
2017-11-06T08:30:45.017Z,1021.53
2017-11-06T08:31:53.861Z,1021.58
2017-11-06T08:33:02.708Z,1021.56
2017-11-06T08:34:11.747Z,1021.6
2017-11-06T08:35:20.592Z,1021.59
2017-11-06T08:36:29.438Z,1021.64
2017-11-06T08:37:38.281Z,1021.62
2017-11-06T08:38:47.125Z,1021.69
2017-11-06T08:39:56.069Z,1021.67
2017-11-06T08:41:04.913Z,1021.68
2017-11-06T08:42:13.752Z,1021.7
2017-11-06T08:43:22.597Z,1021.74
2017-11-06T08:44:31.443Z,1021.74
2017-11-06T08:45:40.340Z,1021.74
2017-11-06T08:46:49.189Z,1021.77
2017-11-06T08:47:58.382Z,1021.74
2017-11-06T08:49:07.227Z,1021.79
2017-11-06T08:50:16.084Z,1021.75
2017-11-06T08:51:25.463Z,1021.75
2017-11-06T08:52:34.310Z,1021.72
2017-11-06T08:53:43.153Z,1021.75
2017-11-06T08:54:52.000Z,1021.73
2017-11-06T08:56:00.847Z,1021.74
2017-11-06T08:57:09.752Z,1021.74
2017-11-06T08:58:18.592Z,1021.77
2017-11-06T08:59:27.430Z,1021.81
2017-11-06T09:00:36.280Z,1021.82
2017-11-06T09:01:45.124Z,1021.82
2017-11-06T09:02:54.220Z,1021.87
2017-11-06T09:04:03.067Z,1021.79
2017-11-06T09:05:11.912Z,1021.8
2017-11-06T09:06:20.759Z,1021.84
2017-11-06T09:07:29.603Z,1021.82
2017-11-06T09:08:38.448Z,1021.84
2017-11-06T09:09:47.296Z,1021.83
2017-11-06T09:10:56.141Z,1021.87
2017-11-06T09:12:04.987Z,1021.84
2017-11-06T09:13:14.182Z,1021.91
2017-11-06T09:14:23.177Z,1021.91
2017-11-06T09:15:32.372Z,1021.9
2017-11-06T09:16:41.217Z,1021.93
2017-11-06T09:17:50.115Z,1021.92
2017-11-06T09:18:58.961Z,1021.89
2017-11-06T09:20:07.906Z,1021.9
2017-11-06T09:21:16.754Z,1021.91
2017-11-06T09:22:25.947Z,1021.98
2017-11-06T09:23:34.788Z,1022.06
2017-11-06T09:24:43.633Z,1022.04
2017-11-06T09:25:52.630Z,1022.01
2017-11-06T09:27:01.482Z,1022.07
2017-11-06T09:28:10.322Z,1022.1
2017-11-06T09:29:19.165Z,1022.13
2017-11-06T09:30:28.008Z,1022.17
2017-11-06T09:31:37.105Z,1022.2
2017-11-06T09:33:18.005Z,1022.24
2017-11-06T09:34:26.853Z,1022.25
2017-11-06T09:35:35.694Z,1022.28
2017-11-06T09:36:44.789Z,1022.37
2017-11-06T09:37:53.633Z,1022.38
2017-11-06T09:39:02.477Z,1022.38
2017-11-06T09:40:11.324Z,1022.38
2017-11-06T09:41:20.172Z,1022.42
2017-11-06T09:42:29.267Z,1022.4
2017-11-06T09:43:38.112Z,1022.37
2017-11-06T09:44:46.967Z,1022.47
2017-11-06T09:45:55.805Z,1022.43
2017-11-06T09:47:04.653Z,1022.43
2017-11-06T09:48:13.556Z,1022.36
2017-11-06T09:49:22.406Z,1022.39
2017-11-06T09:50:31.250Z,1022.41
2017-11-06T09:51:40.098Z,1022.43
2017-11-06T09:52:49.343Z,1022.45
2017-11-06T09:53:58.287Z,1022.44
2017-11-06T09:55:07.134Z,1022.48
2017-11-06T09:56:15.980Z,1022.46
2017-11-06T09:57:24.828Z,1022.52
2017-11-06T09:58:33.675Z,1022.54
2017-11-06T09:59:42.622Z,1022.55
2017-11-06T10:00:51.469Z,1022.53
2017-11-06T10:02:00.316Z,1022.51
2017-11-06T10:03:09.161Z,1022.55
2017-11-06T10:04:18.021Z,1022.6
2017-11-06T10:05:27.053Z,1022.55
2017-11-06T10:06:35.897Z,1022.59
2017-11-06T10:07:44.745Z,1022.62
2017-11-06T10:08:53.584Z,1022.58
2017-11-06T10:10:02.430Z,1022.56
2017-11-06T10:11:11.327Z,1022.55
2017-11-06T10:12:20.523Z,1022.55
2017-11-06T10:13:29.368Z,1022.55
2017-11-06T10:14:38.218Z,1022.52
2017-11-06T10:15:47.407Z,1022.52
2017-11-06T10:16:56.509Z,1022.57
2017-11-06T10:18:05.357Z,1022.56
2017-11-06T10:19:14.210Z,1022.52
2017-11-06T10:20:23.409Z,1022.57
2017-11-06T10:21:32.254Z,1022.57
2017-11-06T10:22:41.201Z,1022.62
2017-11-06T10:23:50.049Z,1022.63
2017-11-06T10:24:58.893Z,1022.63
2017-11-06T10:26:07.747Z,1022.72
2017-11-06T10:27:16.588Z,1022.71
2017-11-06T10:28:25.583Z,1022.74
2017-11-06T10:29:34.432Z,1022.75
2017-11-06T10:30:43.281Z,1022.77
2017-11-06T10:31:52.143Z,1022.77
2017-11-06T10:33:00.979Z,1022.81
2017-11-06T10:34:09.875Z,1022.78
2017-11-06T10:35:18.727Z,1022.82
2017-11-06T10:36:27.573Z,1022.82
2017-11-06T10:37:36.422Z,1022.87
2017-11-06T10:38:45.636Z,1022.82
2017-11-06T10:39:54.583Z,1022.85
2017-11-06T10:41:03.429Z,1022.85
2017-11-06T10:42:12.275Z,1022.84
2017-11-06T10:43:21.124Z,1022.88
2017-11-06T10:44:29.973Z,1022.86
2017-11-06T10:45:38.868Z,1022.92
2017-11-06T10:46:47.714Z,1022.85
2017-11-06T10:47:56.563Z,1022.9
2017-11-06T10:49:05.412Z,1022.95
2017-11-06T10:50:14.260Z,1023
2017-11-06T10:51:23.211Z,1023
2017-11-06T10:52:32.057Z,1023.07
2017-11-06T10:53:40.904Z,1023.07
2017-11-06T10:54:49.749Z,1023.09
2017-11-06T10:55:58.597Z,1023.09
2017-11-06T10:57:07.493Z,1023.07
2017-11-06T10:58:16.345Z,1023.09
2017-11-06T10:59:25.196Z,1023.07
2017-11-06T11:00:34.044Z,1023.07
2017-11-06T11:01:42.892Z,1023.07
2017-11-06T11:02:51.737Z,1023.09
2017-11-06T11:04:00.586Z,1023.12
2017-11-06T11:05:09.784Z,1023.09
2017-11-06T11:06:18.637Z,1023.1
2017-11-06T11:07:27.481Z,1023.08
2017-11-06T11:08:36.482Z,1023.15
2017-11-06T11:09:45.331Z,1023.12
2017-11-06T11:10:54.184Z,1023.11
2017-11-06T11:12:03.031Z,1023.13
2017-11-06T11:13:11.881Z,1023.14
2017-11-06T11:14:20.780Z,1023.11
2017-11-06T11:15:29.630Z,1023.15
2017-11-06T11:16:38.478Z,1023.22
2017-11-06T11:17:47.324Z,1023.17
2017-11-06T11:18:56.171Z,1023.21
2017-11-06T11:20:05.423Z,1023.2
2017-11-06T11:21:14.273Z,1023.15
2017-11-06T11:22:23.121Z,1023.11
2017-11-06T11:23:31.971Z,1023.16
2017-11-06T11:24:40.820Z,1023.11
2017-11-06T11:25:49.820Z,1023.12
2017-11-06T11:26:58.667Z,1023.12
2017-11-06T11:28:07.516Z,1023.12
2017-11-06T11:29:16.364Z,1023.13
2017-11-06T11:30:25.216Z,1023.18
2017-11-06T11:31:34.265Z,1023.21
2017-11-06T11:32:43.113Z,1023.2
2017-11-06T11:33:52.308Z,1023.2
2017-11-06T11:35:01.154Z,1023.21
2017-11-06T11:36:10.348Z,1023.23
2017-11-06T11:37:19.297Z,1023.23
2017-11-06T11:38:28.149Z,1023.26
2017-11-06T11:39:37.000Z,1023.28
2017-11-06T11:40:45.854Z,1023.24
2017-11-06T11:41:54.697Z,1023.26
2017-11-06T11:43:03.802Z,1023.32
2017-11-06T11:44:12.646Z,1023.27
2017-11-06T11:45:21.494Z,1023.27
2017-11-06T11:46:30.344Z,1023.31
2017-11-06T11:47:39.192Z,1023.26
2017-11-06T11:48:48.191Z,1023.29
2017-11-06T11:49:57.040Z,1023.29
2017-11-06T11:51:05.889Z,1023.29
2017-11-06T11:52:14.739Z,1023.31
2017-11-06T11:53:23.597Z,1023.31
2017-11-06T11:54:32.561Z,1023.34
2017-11-06T11:55:41.418Z,1023.35
2017-11-06T11:56:50.266Z,1023.35
2017-11-06T11:57:59.114Z,1023.33
2017-11-06T11:59:07.963Z,1023.34
2017-11-06T12:00:16.913Z,1023.36
2017-11-06T12:01:25.769Z,1023.33
2017-11-06T12:02:34.614Z,1023.37
2017-11-06T12:03:43.463Z,1023.39
2017-11-06T12:04:52.660Z,1023.41
2017-11-06T12:06:01.560Z,1023.43
2017-11-06T12:07:10.418Z,1023.39
2017-11-06T12:08:19.267Z,1023.41
2017-11-06T12:09:28.131Z,1023.42
2017-11-06T12:10:37.020Z,1023.42
2017-11-06T12:11:46.126Z,1023.42
2017-11-06T12:12:55.346Z,1023.41
2017-11-06T12:14:04.190Z,1023.4
2017-11-06T12:15:13.032Z,1023.43
2017-11-06T12:16:21.883Z,1023.36
2017-11-06T12:17:30.818Z,1023.38
2017-11-06T12:18:39.687Z,1023.38
2017-11-06T12:19:48.540Z,1023.41
2017-11-06T12:20:57.391Z,1023.37
2017-11-06T12:22:06.291Z,1023.35
2017-11-06T12:23:15.496Z,1023.42
2017-11-06T12:24:24.345Z,1023.4
2017-11-06T12:25:33.192Z,1023.4
2017-11-06T12:26:42.059Z,1023.47
2017-11-06T12:27:51.152Z,1023.42
2017-11-06T12:29:00.156Z,1023.42
2017-11-06T12:30:09.057Z,1023.37
2017-11-06T12:31:18.251Z,1023.4
2017-11-06T12:32:27.105Z,1023.43
2017-11-06T12:33:35.952Z,1023.4
2017-11-06T12:34:44.876Z,1023.45
2017-11-06T12:35:54.070Z,1023.44
2017-11-06T12:37:02.917Z,1023.41
2017-11-06T12:38:11.791Z,1023.43
2017-11-06T12:39:20.691Z,1023.39
2017-11-06T12:40:29.598Z,1023.44
2017-11-06T12:41:38.448Z,1023.46
2017-11-06T12:42:47.301Z,1023.45
2017-11-06T12:43:56.149Z,1023.46
2017-11-06T12:45:05.366Z,1023.43
2017-11-06T12:46:14.466Z,1023.46
2017-11-06T12:47:23.316Z,1023.47
2017-11-06T12:48:32.165Z,1023.48
2017-11-06T12:49:41.017Z,1023.42
2017-11-06T12:50:49.873Z,1023.5
2017-11-06T12:51:58.899Z,1023.49
2017-11-06T12:53:07.812Z,1023.51
2017-11-06T12:54:16.647Z,1023.49
2017-11-06T12:55:25.542Z,1023.53
2017-11-06T12:56:34.393Z,1023.5
2017-11-06T12:57:43.547Z,1023.48
2017-11-06T12:58:52.437Z,1023.57
2017-11-06T13:00:01.291Z,1023.53
2017-11-06T13:01:10.419Z,1023.55
2017-11-06T13:02:19.272Z,1023.56
2017-11-06T13:03:28.270Z,1023.59
2017-11-06T13:04:37.121Z,1023.58
2017-11-06T13:05:45.970Z,1023.61
2017-11-06T13:06:54.820Z,1023.65
2017-11-06T13:08:03.669Z,1023.61
2017-11-06T13:09:12.963Z,1023.6
2017-11-06T13:10:21.815Z,1023.62
2017-11-06T13:11:30.668Z,1023.6
2017-11-06T13:12:39.519Z,1023.59
2017-11-06T13:13:48.368Z,1023.55
2017-11-06T13:14:57.714Z,1023.61
2017-11-06T13:16:06.911Z,1023.56
2017-11-06T13:17:15.765Z,1023.55
2017-11-06T13:18:24.617Z,1023.59
2017-11-06T13:19:33.469Z,1023.63
2017-11-06T13:20:42.616Z,1023.63
2017-11-06T13:21:51.517Z,1023.68
2017-11-06T13:23:00.367Z,1023.66
2017-11-06T13:24:09.219Z,1023.66
2017-11-06T13:25:18.068Z,1023.69
2017-11-06T13:26:26.971Z,1023.68
2017-11-06T13:27:35.823Z,1023.7
2017-11-06T13:28:44.677Z,1023.7
2017-11-06T13:29:53.529Z,1023.77
2017-11-06T13:31:02.386Z,1023.78
2017-11-06T13:32:11.242Z,1023.84
2017-11-06T13:33:20.445Z,1023.84
2017-11-06T13:34:29.297Z,1023.84
2017-11-06T13:35:38.171Z,1023.84
2017-11-06T13:36:47.039Z,1023.83
2017-11-06T13:37:55.947Z,1023.81
2017-11-06T13:39:04.812Z,1023.85
2017-11-06T13:40:13.668Z,1023.86
2017-11-06T13:41:22.518Z,1023.87
2017-11-06T13:42:31.373Z,1023.9
2017-11-06T13:43:40.232Z,1023.85
2017-11-06T13:44:49.088Z,1023.89
2017-11-06T13:45:58.290Z,1023.88
2017-11-06T13:47:07.484Z,1023.9
2017-11-06T13:48:16.341Z,1023.96
2017-11-06T13:49:25.194Z,1023.96
2017-11-06T13:50:34.051Z,1024
2017-11-06T13:51:42.910Z,1023.99
2017-11-06T13:52:52.113Z,1024.05
2017-11-06T13:54:00.966Z,1024
2017-11-06T13:55:09.818Z,1024.05
2017-11-06T13:56:18.676Z,1024.06
2017-11-06T13:57:27.731Z,1024.09